sensor_id;sensor_type;location;lat;lon;timestamp;pressure;altitude;pressure_sealevel;temperature;humidity
57050;BME280;42935;50.966;16.992;2023-09-30T00:02:51;101685.09;;;17.11;100.00
57050;BME280;42935;50.966;16.992;2023-09-30T00:06:07;101677.27;;;17.01;100.00
57050;BME280;42935;50.966;16.992;2023-09-30T00:09:25;101687.52;;;17.20;100.00
57050;BME280;42935;50.966;16.992;2023-09-30T00:12:42;101683.41;;;17.11;100.00
57050;BME280;42935;50.966;16.992;2023-09-30T00:15:56;101685.67;;;16.97;100.00
57050;BME280;42935;50.966;16.992;2023-09-30T00:19:18;101697.37;;;17.11;100.00
57050;BME280;42935;50.966;16.992;2023-09-30T00:22:46;101687.62;;;17.04;100.00
57050;BME280;42935;50.966;16.992;2023-09-30T00:26:03;101697.96;;;17.13;100.00
57050;BME280;42935;50.966;16.992;2023-09-30T00:29:26;101695.40;;;17.28;100.00
57050;BME280;42935;50.966;16.992;2023-09-30T00:32:42;101697.02;;;17.39;100.00
57050;BME280;42935;50.966;16.992;2023-09-30T00:36:07;101695.63;;;17.38;100.00
57050;BME280;42935;50.966;16.992;2023-09-30T00:39:25;101694.34;;;17.31;100.00
57050;BME280;42935;50.966;16.992;2023-09-30T00:42:44;101692.50;;;17.53;100.00
57050;BME280;42935;50.966;16.992;2023-09-30T00:46:17;101691.92;;;17.61;100.00
57050;BME280;42935;50.966;16.992;2023-09-30T00:49:33;101690.40;;;17.57;100.00
57050;BME280;42935;50.966;16.992;2023-09-30T00:52:50;101692.70;;;17.55;100.00
57050;BME280;42935;50.966;16.992;2023-09-30T00:56:12;101695.52;;;17.60;100.00
57050;BME280;42935;50.966;16.992;2023-09-30T00:59:36;101693.22;;;17.65;100.00
57050;BME280;42935;50.966;16.992;2023-09-30T01:02:58;101690.23;;;17.47;100.00
57050;BME280;42935;50.966;16.992;2023-09-30T01:06:20;101699.17;;;17.18;100.00
57050;BME280;42935;50.966;16.992;2023-09-30T01:09:41;101706.31;;;17.39;100.00
57050;BME280;42935;50.966;16.992;2023-09-30T01:13:00;101706.16;;;17.48;100.00
57050;BME280;42935;50.966;16.992;2023-09-30T01:16:19;101698.31;;;17.31;100.00
57050;BME280;42935;50.966;16.992;2023-09-30T01:19:40;101699.28;;;17.40;100.00
57050;BME280;42935;50.966;16.992;2023-09-30T01:23:03;101697.52;;;17.50;100.00
57050;BME280;42935;50.966;16.992;2023-09-30T01:26:20;101696.78;;;17.56;100.00
57050;BME280;42935;50.966;16.992;2023-09-30T01:29:38;101707.23;;;17.73;100.00
57050;BME280;42935;50.966;16.992;2023-09-30T01:32:54;101708.34;;;17.89;100.00
57050;BME280;42935;50.966;16.992;2023-09-30T01:36:15;101710.64;;;17.85;100.00
57050;BME280;42935;50.966;16.992;2023-09-30T01:39:33;101712.53;;;17.85;100.00
57050;BME280;42935;50.966;16.992;2023-09-30T01:42:50;101697.19;;;17.79;100.00
57050;BME280;42935;50.966;16.992;2023-09-30T01:46:13;101718.05;;;17.83;100.00
57050;BME280;42935;50.966;16.992;2023-09-30T01:49:29;101712.88;;;17.87;100.00
57050;BME280;42935;50.966;16.992;2023-09-30T01:52:47;101722.30;;;17.92;100.00
57050;BME280;42935;50.966;16.992;2023-09-30T01:56:09;101729.49;;;18.02;100.00
57050;BME280;42935;50.966;16.992;2023-09-30T01:59:28;101723.10;;;17.65;100.00
57050;BME280;42935;50.966;16.992;2023-09-30T02:02:50;101733.90;;;17.55;100.00
57050;BME280;42935;50.966;16.992;2023-09-30T02:06:12;101734.25;;;17.54;100.00
57050;BME280;42935;50.966;16.992;2023-09-30T02:09:29;101730.43;;;17.71;100.00
57050;BME280;42935;50.966;16.992;2023-09-30T02:12:48;101719.48;;;17.69;100.00
57050;BME280;42935;50.966;16.992;2023-09-30T02:16:04;101733.33;;;17.68;100.00
57050;BME280;42935;50.966;16.992;2023-09-30T02:19:19;101729.12;;;17.56;100.00
57050;BME280;42935;50.966;16.992;2023-09-30T02:22:38;101730.74;;;17.56;100.00
57050;BME280;42935;50.966;16.992;2023-09-30T02:25:56;101731.05;;;17.74;100.00
57050;BME280;42935;50.966;16.992;2023-09-30T02:29:12;101736.90;;;17.84;100.00
57050;BME280;42935;50.966;16.992;2023-09-30T02:32:27;101730.55;;;18.02;100.00
57050;BME280;42935;50.966;16.992;2023-09-30T02:35:48;101736.45;;;18.12;100.00
57050;BME280;42935;50.966;16.992;2023-09-30T02:39:06;101739.85;;;18.11;100.00
57050;BME280;42935;50.966;16.992;2023-09-30T02:42:25;101739.47;;;18.13;100.00
57050;BME280;42935;50.966;16.992;2023-09-30T02:45:42;101739.38;;;18.11;100.00
57050;BME280;42935;50.966;16.992;2023-09-30T02:49:09;101746.88;;;18.17;100.00
57050;BME280;42935;50.966;16.992;2023-09-30T02:52:26;101741.42;;;18.17;100.00
57050;BME280;42935;50.966;16.992;2023-09-30T02:55:45;101736.29;;;18.15;100.00
57050;BME280;42935;50.966;16.992;2023-09-30T02:58:58;101746.84;;;18.22;100.00
57050;BME280;42935;50.966;16.992;2023-09-30T03:02:19;101751.03;;;18.30;100.00
57050;BME280;42935;50.966;16.992;2023-09-30T03:05:47;101740.31;;;18.28;100.00
57050;BME280;42935;50.966;16.992;2023-09-30T03:09:06;101746.54;;;18.30;100.00
57050;BME280;42935;50.966;16.992;2023-09-30T03:12:32;101753.40;;;18.36;100.00
57050;BME280;42935;50.966;16.992;2023-09-30T03:15:50;101756.20;;;18.33;100.00
57050;BME280;42935;50.966;16.992;2023-09-30T03:19:12;101748.23;;;18.25;100.00
57050;BME280;42935;50.966;16.992;2023-09-30T03:22:33;101763.98;;;18.33;100.00
57050;BME280;42935;50.966;16.992;2023-09-30T03:25:57;101769.41;;;18.25;100.00
57050;BME280;42935;50.966;16.992;2023-09-30T03:29:16;101757.98;;;18.08;100.00
57050;BME280;42935;50.966;16.992;2023-09-30T03:32:34;101763.19;;;18.12;100.00
57050;BME280;42935;50.966;16.992;2023-09-30T03:35:58;101768.37;;;17.97;100.00
57050;BME280;42935;50.966;16.992;2023-09-30T03:39:15;101760.87;;;17.96;100.00
57050;BME280;42935;50.966;16.992;2023-09-30T03:42:39;101781.18;;;17.99;100.00
57050;BME280;42935;50.966;16.992;2023-09-30T03:45:57;101786.50;;;17.93;100.00
57050;BME280;42935;50.966;16.992;2023-09-30T03:49:14;101784.75;;;17.76;100.00
57050;BME280;42935;50.966;16.992;2023-09-30T03:52:33;101801.80;;;17.87;100.00
57050;BME280;42935;50.966;16.992;2023-09-30T03:55:48;101788.88;;;17.64;100.00
57050;BME280;42935;50.966;16.992;2023-09-30T03:59:09;101783.56;;;17.61;100.00
57050;BME280;42935;50.966;16.992;2023-09-30T04:02:26;101805.45;;;17.74;100.00
57050;BME280;42935;50.966;16.992;2023-09-30T04:05:41;101814.47;;;17.83;100.00
57050;BME280;42935;50.966;16.992;2023-09-30T04:08:59;101804.01;;;17.78;100.00
57050;BME280;42935;50.966;16.992;2023-09-30T04:12:16;101809.45;;;17.83;100.00
57050;BME280;42935;50.966;16.992;2023-09-30T04:15:33;101812.57;;;17.83;100.00
57050;BME280;42935;50.966;16.992;2023-09-30T04:18:53;101802.68;;;17.75;100.00
57050;BME280;42935;50.966;16.992;2023-09-30T04:22:09;101823.47;;;17.80;100.00
57050;BME280;42935;50.966;16.992;2023-09-30T04:25:30;101830.82;;;17.75;100.00
57050;BME280;42935;50.966;16.992;2023-09-30T04:28:43;101828.38;;;17.62;100.00
57050;BME280;42935;50.966;16.992;2023-09-30T04:31:57;101833.13;;;17.65;100.00
57050;BME280;42935;50.966;16.992;2023-09-30T04:35:19;101852.69;;;17.65;100.00
57050;BME280;42935;50.966;16.992;2023-09-30T04:38:41;101848.46;;;17.62;100.00
57050;BME280;42935;50.966;16.992;2023-09-30T04:42:01;101838.95;;;17.56;100.00
57050;BME280;42935;50.966;16.992;2023-09-30T04:45:16;101850.52;;;17.62;100.00
57050;BME280;42935;50.966;16.992;2023-09-30T04:48:36;101853.88;;;17.57;100.00
57050;BME280;42935;50.966;16.992;2023-09-30T04:51:52;101864.49;;;17.54;100.00
57050;BME280;42935;50.966;16.992;2023-09-30T04:55:10;101872.31;;;17.53;100.00
57050;BME280;42935;50.966;16.992;2023-09-30T04:58:31;101862.41;;;17.46;100.00
57050;BME280;42935;50.966;16.992;2023-09-30T05:01:48;101871.73;;;17.47;100.00
57050;BME280;42935;50.966;16.992;2023-09-30T05:05:09;101880.52;;;17.46;100.00
57050;BME280;42935;50.966;16.992;2023-09-30T05:08:23;101885.98;;;17.44;100.00
57050;BME280;42935;50.966;16.992;2023-09-30T05:11:42;101889.31;;;17.40;100.00
57050;BME280;42935;50.966;16.992;2023-09-30T05:15:06;101893.37;;;17.35;100.00
57050;BME280;42935;50.966;16.992;2023-09-30T05:18:27;101889.55;;;17.27;100.00
57050;BME280;42935;50.966;16.992;2023-09-30T05:21:47;101897.91;;;17.27;100.00
57050;BME280;42935;50.966;16.992;2023-09-30T05:25:05;101898.35;;;17.35;100.00
57050;BME280;42935;50.966;16.992;2023-09-30T05:28:23;101903.05;;;17.39;100.00
57050;BME280;42935;50.966;16.992;2023-09-30T05:31:37;101905.95;;;17.33;100.00
57050;BME280;42935;50.966;16.992;2023-09-30T05:34:55;101925.45;;;17.43;100.00
57050;BME280;42935;50.966;16.992;2023-09-30T05:38:09;101924.09;;;17.42;100.00
57050;BME280;42935;50.966;16.992;2023-09-30T05:41:28;101924.68;;;17.39;100.00
57050;BME280;42935;50.966;16.992;2023-09-30T05:44:44;101929.52;;;17.38;100.00
57050;BME280;42935;50.966;16.992;2023-09-30T05:48:07;101923.55;;;17.37;100.00
57050;BME280;42935;50.966;16.992;2023-09-30T05:51:25;101911.69;;;17.37;100.00
57050;BME280;42935;50.966;16.992;2023-09-30T05:54:44;101912.89;;;17.35;100.00
57050;BME280;42935;50.966;16.992;2023-09-30T05:58:01;101918.98;;;17.41;100.00
57050;BME280;42935;50.966;16.992;2023-09-30T06:01:18;101927.12;;;17.44;100.00
57050;BME280;42935;50.966;16.992;2023-09-30T06:04:41;101940.02;;;17.37;100.00
57050;BME280;42935;50.966;16.992;2023-09-30T06:07:57;101950.74;;;17.20;100.00
57050;BME280;42935;50.966;16.992;2023-09-30T06:11:19;101958.48;;;17.19;100.00
57050;BME280;42935;50.966;16.992;2023-09-30T06:14:40;101955.94;;;17.05;100.00
57050;BME280;42935;50.966;16.992;2023-09-30T06:17:59;101970.34;;;16.90;100.00
57050;BME280;42935;50.966;16.992;2023-09-30T06:21:20;101925.43;;;16.54;100.00
57050;BME280;42935;50.966;16.992;2023-09-30T06:24:37;101995.87;;;16.75;100.00
57050;BME280;42935;50.966;16.992;2023-09-30T06:27:56;102008.05;;;16.70;100.00
57050;BME280;42935;50.966;16.992;2023-09-30T06:31:14;102020.35;;;16.46;100.00
57050;BME280;42935;50.966;16.992;2023-09-30T06:34:32;102021.91;;;16.14;100.00
57050;BME280;42935;50.966;16.992;2023-09-30T06:37:51;102036.38;;;16.06;100.00
57050;BME280;42935;50.966;16.992;2023-09-30T06:41:08;102043.70;;;15.91;100.00
57050;BME280;42935;50.966;16.992;2023-09-30T06:44:26;102054.01;;;15.92;100.00
57050;BME280;42935;50.966;16.992;2023-09-30T06:48:16;102047.17;;;15.87;100.00
57050;BME280;42935;50.966;16.992;2023-09-30T06:51:34;102065.36;;;15.85;100.00
57050;BME280;42935;50.966;16.992;2023-09-30T06:54:51;102064.25;;;15.91;100.00
57050;BME280;42935;50.966;16.992;2023-09-30T06:58:10;102075.00;;;15.94;100.00
57050;BME280;42935;50.966;16.992;2023-09-30T07:01:31;102071.07;;;15.78;100.00
57050;BME280;42935;50.966;16.992;2023-09-30T07:04:48;102055.41;;;15.50;100.00
57050;BME280;42935;50.966;16.992;2023-09-30T07:08:05;102089.59;;;15.55;100.00
57050;BME280;42935;50.966;16.992;2023-09-30T07:11:28;102100.66;;;15.53;100.00
57050;BME280;42935;50.966;16.992;2023-09-30T07:14:46;102099.66;;;15.53;100.00
57050;BME280;42935;50.966;16.992;2023-09-30T07:18:08;102108.94;;;15.49;100.00
57050;BME280;42935;50.966;16.992;2023-09-30T07:21:25;102123.18;;;15.50;100.00
57050;BME280;42935;50.966;16.992;2023-09-30T07:24:38;102134.04;;;15.61;100.00
57050;BME280;42935;50.966;16.992;2023-09-30T07:27:51;102142.09;;;15.60;100.00
57050;BME280;42935;50.966;16.992;2023-09-30T07:31:12;102156.40;;;15.45;100.00
57050;BME280;42935;50.966;16.992;2023-09-30T07:34:29;102168.79;;;15.40;100.00
57050;BME280;42935;50.966;16.992;2023-09-30T07:37:45;102166.17;;;15.41;100.00
57050;BME280;42935;50.966;16.992;2023-09-30T07:41:00;102156.16;;;15.41;100.00
57050;BME280;42935;50.966;16.992;2023-09-30T07:44:21;102171.41;;;15.25;100.00
57050;BME280;42935;50.966;16.992;2023-09-30T07:47:38;102166.98;;;15.36;100.00
57050;BME280;42935;50.966;16.992;2023-09-30T07:50:55;102139.10;;;15.48;100.00
57050;BME280;42935;50.966;16.992;2023-09-30T07:54:12;102154.02;;;15.64;100.00
57050;BME280;42935;50.966;16.992;2023-09-30T07:57:29;102158.78;;;15.74;100.00
57050;BME280;42935;50.966;16.992;2023-09-30T08:01:17;102150.71;;;15.77;100.00
57050;BME280;42935;50.966;16.992;2023-09-30T08:04:34;102147.81;;;16.20;100.00
57050;BME280;42935;50.966;16.992;2023-09-30T08:07:52;102159.81;;;16.24;100.00
57050;BME280;42935;50.966;16.992;2023-09-30T08:11:09;102164.25;;;15.94;100.00
57050;BME280;42935;50.966;16.992;2023-09-30T08:14:22;102161.38;;;15.85;100.00
57050;BME280;42935;50.966;16.992;2023-09-30T08:17:35;102181.54;;;15.79;100.00
57050;BME280;42935;50.966;16.992;2023-09-30T08:20:51;102177.00;;;15.71;100.00
57050;BME280;42935;50.966;16.992;2023-09-30T08:24:07;102188.92;;;15.73;100.00
57050;BME280;42935;50.966;16.992;2023-09-30T08:27:25;102188.04;;;15.48;100.00
57050;BME280;42935;50.966;16.992;2023-09-30T08:30:42;102202.84;;;15.47;100.00
57050;BME280;42935;50.966;16.992;2023-09-30T08:34:00;102193.16;;;15.34;100.00
57050;BME280;42935;50.966;16.992;2023-09-30T08:37:21;102206.64;;;15.26;100.00
57050;BME280;42935;50.966;16.992;2023-09-30T08:40:38;102198.51;;;15.11;100.00
57050;BME280;42935;50.966;16.992;2023-09-30T08:43:56;102216.40;;;15.11;100.00
57050;BME280;42935;50.966;16.992;2023-09-30T08:47:16;102223.25;;;15.09;100.00
57050;BME280;42935;50.966;16.992;2023-09-30T08:50:39;102230.98;;;15.20;100.00
57050;BME280;42935;50.966;16.992;2023-09-30T08:53:55;102225.13;;;15.24;100.00
57050;BME280;42935;50.966;16.992;2023-09-30T08:57:12;102230.62;;;15.65;100.00
57050;BME280;42935;50.966;16.992;2023-09-30T09:00:30;102238.24;;;15.98;100.00
57050;BME280;42935;50.966;16.992;2023-09-30T09:03:50;102234.05;;;16.29;100.00
57050;BME280;42935;50.966;16.992;2023-09-30T09:07:04;102247.86;;;16.26;100.00
57050;BME280;42935;50.966;16.992;2023-09-30T09:10:56;102237.06;;;16.21;100.00
57050;BME280;42935;50.966;16.992;2023-09-30T09:14:13;102249.66;;;16.47;100.00
57050;BME280;42935;50.966;16.992;2023-09-30T09:24:32;102267.34;;;16.24;100.00
57050;BME280;42935;50.966;16.992;2023-09-30T09:27:48;102271.44;;;16.79;100.00
57050;BME280;42935;50.966;16.992;2023-09-30T09:34:34;102267.87;;;16.58;98.77
57050;BME280;42935;50.966;16.992;2023-09-30T09:37:58;102257.03;;;16.63;96.53
57050;BME280;42935;50.966;16.992;2023-09-30T09:41:15;102260.01;;;16.28;97.92
57050;BME280;42935;50.966;16.992;2023-09-30T09:44:34;102284.80;;;16.08;98.74
57050;BME280;42935;50.966;16.992;2023-09-30T09:47:48;102271.66;;;16.06;95.05
57050;BME280;42935;50.966;16.992;2023-09-30T09:51:09;102271.13;;;16.20;91.82
57050;BME280;42935;50.966;16.992;2023-09-30T09:54:30;102283.52;;;16.25;91.39
57050;BME280;42935;50.966;16.992;2023-09-30T09:57:44;102268.44;;;16.53;92.20
57050;BME280;42935;50.966;16.992;2023-09-30T10:01:01;102267.74;;;16.44;90.31
57050;BME280;42935;50.966;16.992;2023-09-30T10:04:22;102275.86;;;16.30;89.55
57050;BME280;42935;50.966;16.992;2023-09-30T10:11:08;102259.76;;;16.11;88.45
57050;BME280;42935;50.966;16.992;2023-09-30T10:14:32;102255.45;;;16.25;84.70
57050;BME280;42935;50.966;16.992;2023-09-30T10:21:15;102267.34;;;16.60;79.26
57050;BME280;42935;50.966;16.992;2023-09-30T10:24:33;102229.45;;;16.65;80.05
57050;BME280;42935;50.966;16.992;2023-09-30T10:27:50;102248.10;;;16.71;78.42
57050;BME280;42935;50.966;16.992;2023-09-30T10:31:20;102264.23;;;17.16;75.32
57050;BME280;42935;50.966;16.992;2023-09-30T10:34:48;102262.41;;;16.99;73.85
57050;BME280;42935;50.966;16.992;2023-09-30T10:45:05;102267.80;;;16.95;70.30
57050;BME280;42935;50.966;16.992;2023-09-30T10:48:33;102285.52;;;17.19;71.65
57050;BME280;42935;50.966;16.992;2023-09-30T10:51:59;102277.55;;;17.44;70.34
57050;BME280;42935;50.966;16.992;2023-09-30T10:55:19;102283.84;;;17.52;71.00
57050;BME280;42935;50.966;16.992;2023-09-30T10:58:48;102282.90;;;17.69;71.21
57050;BME280;42935;50.966;16.992;2023-09-30T11:05:28;102293.30;;;17.57;69.24
57050;BME280;42935;50.966;16.992;2023-09-30T11:08:55;102303.93;;;17.53;66.57
57050;BME280;42935;50.966;16.992;2023-09-30T11:12:14;102309.72;;;17.25;70.28
57050;BME280;42935;50.966;16.992;2023-09-30T11:15:31;102306.12;;;16.84;73.07
57050;BME280;42935;50.966;16.992;2023-09-30T11:18:52;102282.78;;;16.56;72.78
57050;BME280;42935;50.966;16.992;2023-09-30T11:22:36;102285.91;;;17.09;72.84
57050;BME280;42935;50.966;16.992;2023-09-30T11:25:55;102295.76;;;17.09;71.62
57050;BME280;42935;50.966;16.992;2023-09-30T11:29:13;102293.51;;;16.85;71.78
57050;BME280;42935;50.966;16.992;2023-09-30T11:32:33;102295.16;;;17.10;72.18
57050;BME280;42935;50.966;16.992;2023-09-30T11:36:00;102283.56;;;17.06;72.43
57050;BME280;42935;50.966;16.992;2023-09-30T11:39:23;102292.74;;;16.97;71.08
57050;BME280;42935;50.966;16.992;2023-09-30T11:42:38;102285.97;;;17.26;71.22
57050;BME280;42935;50.966;16.992;2023-09-30T11:49:31;102280.59;;;17.51;71.31
57050;BME280;42935;50.966;16.992;2023-09-30T11:52:50;102266.79;;;17.45;70.17
57050;BME280;42935;50.966;16.992;2023-09-30T11:56:08;102268.69;;;17.72;69.35
57050;BME280;42935;50.966;16.992;2023-09-30T11:59:30;102276.28;;;17.61;67.99
57050;BME280;42935;50.966;16.992;2023-09-30T12:02:47;102280.84;;;17.82;67.55
57050;BME280;42935;50.966;16.992;2023-09-30T12:06:33;102285.55;;;17.57;67.21
57050;BME280;42935;50.966;16.992;2023-09-30T12:10:01;102282.34;;;17.44;66.88
57050;BME280;42935;50.966;16.992;2023-09-30T12:13:19;102284.23;;;17.55;66.80
57050;BME280;42935;50.966;16.992;2023-09-30T12:16:32;102270.52;;;17.90;66.71
57050;BME280;42935;50.966;16.992;2023-09-30T12:19:49;102278.60;;;17.86;65.74
57050;BME280;42935;50.966;16.992;2023-09-30T12:23:07;102275.67;;;17.83;66.36
57050;BME280;42935;50.966;16.992;2023-09-30T12:26:21;102290.33;;;17.72;66.26
57050;BME280;42935;50.966;16.992;2023-09-30T12:30:10;102280.68;;;17.81;64.86
57050;BME280;42935;50.966;16.992;2023-09-30T12:33:31;102276.50;;;17.91;65.34
57050;BME280;42935;50.966;16.992;2023-09-30T12:36:49;102280.91;;;18.35;65.13
57050;BME280;42935;50.966;16.992;2023-09-30T12:40:07;102287.89;;;18.06;64.93
57050;BME280;42935;50.966;16.992;2023-09-30T12:43:27;102279.75;;;18.28;65.52
57050;BME280;42935;50.966;16.992;2023-09-30T12:46:43;102272.79;;;18.25;64.64
57050;BME280;42935;50.966;16.992;2023-09-30T12:49:59;102294.52;;;18.27;64.92
57050;BME280;42935;50.966;16.992;2023-09-30T12:53:18;102283.49;;;17.94;64.60
57050;BME280;42935;50.966;16.992;2023-09-30T12:56:35;102253.63;;;17.74;65.34
57050;BME280;42935;50.966;16.992;2023-09-30T12:59:52;102284.95;;;18.55;64.15
57050;BME280;42935;50.966;16.992;2023-09-30T13:03:09;102276.28;;;18.31;62.25
57050;BME280;42935;50.966;16.992;2023-09-30T13:06:29;102285.27;;;18.65;61.59
57050;BME280;42935;50.966;16.992;2023-09-30T13:09:50;102289.48;;;18.90;60.50
57050;BME280;42935;50.966;16.992;2023-09-30T13:13:03;102289.88;;;18.53;60.33
57050;BME280;42935;50.966;16.992;2023-09-30T13:16:27;102291.05;;;18.53;60.66
57050;BME280;42935;50.966;16.992;2023-09-30T13:19:49;102277.65;;;18.53;60.98
57050;BME280;42935;50.966;16.992;2023-09-30T13:23:05;102284.59;;;18.54;61.21
57050;BME280;42935;50.966;16.992;2023-09-30T13:26:22;102288.32;;;18.22;60.92
57050;BME280;42935;50.966;16.992;2023-09-30T13:29:42;102279.61;;;18.52;60.42
57050;BME280;42935;50.966;16.992;2023-09-30T13:33:31;102280.98;;;18.66;59.03
57050;BME280;42935;50.966;16.992;2023-09-30T13:36:47;102267.25;;;18.43;59.30
57050;BME280;42935;50.966;16.992;2023-09-30T13:40:09;102276.50;;;18.59;59.04
57050;BME280;42935;50.966;16.992;2023-09-30T13:43:28;102280.23;;;18.68;58.74
57050;BME280;42935;50.966;16.992;2023-09-30T13:46:46;102286.38;;;18.24;58.77
57050;BME280;42935;50.966;16.992;2023-09-30T13:50:08;102289.93;;;18.06;60.46
57050;BME280;42935;50.966;16.992;2023-09-30T13:53:21;102291.24;;;18.06;61.43
57050;BME280;42935;50.966;16.992;2023-09-30T13:56:38;102289.92;;;17.55;61.65
57050;BME280;42935;50.966;16.992;2023-09-30T13:59:56;102284.88;;;18.44;61.34
57050;BME280;42935;50.966;16.992;2023-09-30T14:03:12;102279.67;;;18.81;59.59
57050;BME280;42935;50.966;16.992;2023-09-30T14:06:25;102282.21;;;18.87;58.22
57050;BME280;42935;50.966;16.992;2023-09-30T14:09:46;102280.51;;;18.26;60.70
57050;BME280;42935;50.966;16.992;2023-09-30T14:13:03;102287.96;;;18.55;59.73
57050;BME280;42935;50.966;16.992;2023-09-30T14:16:48;102282.72;;;18.61;59.24
57050;BME280;42935;50.966;16.992;2023-09-30T14:20:11;102278.56;;;18.97;59.06
57050;BME280;42935;50.966;16.992;2023-09-30T14:23:24;102271.74;;;18.92;59.05
57050;BME280;42935;50.966;16.992;2023-09-30T14:26:41;102276.63;;;19.11;59.11
57050;BME280;42935;50.966;16.992;2023-09-30T14:30:00;102276.39;;;19.69;57.52
57050;BME280;42935;50.966;16.992;2023-09-30T14:33:19;102271.25;;;19.04;57.79
57050;BME280;42935;50.966;16.992;2023-09-30T14:36:36;102269.75;;;19.32;58.22
57050;BME280;42935;50.966;16.992;2023-09-30T14:39:53;102278.02;;;19.05;58.31
57050;BME280;42935;50.966;16.992;2023-09-30T14:43:10;102277.88;;;18.52;59.41
57050;BME280;42935;50.966;16.992;2023-09-30T14:46:30;102277.49;;;18.02;60.47
57050;BME280;42935;50.966;16.992;2023-09-30T14:49:46;102282.77;;;17.84;61.64
57050;BME280;42935;50.966;16.992;2023-09-30T14:53:04;102289.76;;;17.54;62.16
57050;BME280;42935;50.966;16.992;2023-09-30T14:56:23;102289.64;;;17.78;63.16
57050;BME280;42935;50.966;16.992;2023-09-30T14:59:43;102280.79;;;18.42;61.97
57050;BME280;42935;50.966;16.992;2023-09-30T15:03:03;102279.10;;;18.60;61.51
57050;BME280;42935;50.966;16.992;2023-09-30T15:06:21;102288.59;;;18.97;60.95
57050;BME280;42935;50.966;16.992;2023-09-30T15:09:36;102278.19;;;18.85;60.97
57050;BME280;42935;50.966;16.992;2023-09-30T15:12:55;102277.52;;;19.31;60.38
57050;BME280;42935;50.966;16.992;2023-09-30T15:16:19;102267.80;;;19.30;60.88
57050;BME280;42935;50.966;16.992;2023-09-30T15:19:36;102271.23;;;19.37;60.61
57050;BME280;42935;50.966;16.992;2023-09-30T15:22:53;102280.88;;;19.48;60.18
57050;BME280;42935;50.966;16.992;2023-09-30T15:26:12;102273.00;;;19.06;59.83
57050;BME280;42935;50.966;16.992;2023-09-30T15:29:31;102263.53;;;19.23;60.45
57050;BME280;42935;50.966;16.992;2023-09-30T15:32:51;102283.61;;;19.38;59.80
57050;BME280;42935;50.966;16.992;2023-09-30T15:36:10;102291.60;;;18.92;59.69
57050;BME280;42935;50.966;16.992;2023-09-30T15:39:27;102281.88;;;18.11;60.88
57050;BME280;42935;50.966;16.992;2023-09-30T15:42:45;102302.98;;;18.24;61.66
57050;BME280;42935;50.966;16.992;2023-09-30T15:45:59;102297.63;;;17.97;61.48
57050;BME280;42935;50.966;16.992;2023-09-30T15:49:16;102298.92;;;17.86;62.07
57050;BME280;42935;50.966;16.992;2023-09-30T15:52:32;102296.98;;;17.49;62.50
57050;BME280;42935;50.966;16.992;2023-09-30T15:55:48;102307.75;;;17.22;63.66
57050;BME280;42935;50.966;16.992;2023-09-30T15:59:05;102315.64;;;17.06;64.30
57050;BME280;42935;50.966;16.992;2023-09-30T16:02:53;102312.22;;;16.85;65.44
57050;BME280;42935;50.966;16.992;2023-09-30T16:06:07;102321.30;;;16.73;65.82
57050;BME280;42935;50.966;16.992;2023-09-30T16:09:56;102314.80;;;16.75;66.46
57050;BME280;42935;50.966;16.992;2023-09-30T16:13:13;102327.20;;;16.75;66.40
57050;BME280;42935;50.966;16.992;2023-09-30T16:16:31;102318.46;;;16.58;67.05
57050;BME280;42935;50.966;16.992;2023-09-30T16:19:50;102333.55;;;16.56;67.61
57050;BME280;42935;50.966;16.992;2023-09-30T16:23:09;102340.40;;;16.20;68.59
57050;BME280;42935;50.966;16.992;2023-09-30T16:26:26;102322.34;;;15.72;69.88
57050;BME280;42935;50.966;16.992;2023-09-30T16:29:47;102350.71;;;15.84;70.50
57050;BME280;42935;50.966;16.992;2023-09-30T16:33:04;102345.91;;;15.81;70.55
57050;BME280;42935;50.966;16.992;2023-09-30T16:36:21;102349.29;;;15.45;72.44
57050;BME280;42935;50.966;16.992;2023-09-30T16:39:42;102344.48;;;15.36;72.90
57050;BME280;42935;50.966;16.992;2023-09-30T16:43:00;102343.08;;;15.03;74.50
57050;BME280;42935;50.966;16.992;2023-09-30T16:46:17;102341.30;;;15.08;74.38
57050;BME280;42935;50.966;16.992;2023-09-30T16:49:31;102348.39;;;14.86;75.87
57050;BME280;42935;50.966;16.992;2023-09-30T16:52:47;102345.63;;;14.79;76.49
57050;BME280;42935;50.966;16.992;2023-09-30T16:56:12;102324.15;;;14.85;75.55
57050;BME280;42935;50.966;16.992;2023-09-30T16:59:30;102334.58;;;14.86;74.99
57050;BME280;42935;50.966;16.992;2023-09-30T17:02:48;102341.20;;;14.65;76.43
57050;BME280;42935;50.966;16.992;2023-09-30T17:06:09;102343.20;;;14.18;79.78
57050;BME280;42935;50.966;16.992;2023-09-30T17:09:26;102350.14;;;14.27;79.26
57050;BME280;42935;50.966;16.992;2023-09-30T17:12:39;102349.73;;;14.23;78.95
57050;BME280;42935;50.966;16.992;2023-09-30T17:15:52;102350.74;;;13.80;81.99
57050;BME280;42935;50.966;16.992;2023-09-30T17:19:05;102357.17;;;13.76;82.22
57050;BME280;42935;50.966;16.992;2023-09-30T17:22:22;102356.98;;;13.80;81.06
57050;BME280;42935;50.966;16.992;2023-09-30T17:25:42;102360.25;;;13.57;82.44
57050;BME280;42935;50.966;16.992;2023-09-30T17:29:00;102358.59;;;13.58;82.83
57050;BME280;42935;50.966;16.992;2023-09-30T17:32:17;102351.59;;;13.35;84.26
57050;BME280;42935;50.966;16.992;2023-09-30T17:35:38;102364.55;;;12.68;93.50